createdAt,value
2023-03-22T00:01:14.427Z,1.92
2023-03-22T00:03:41.248Z,1.67
2023-03-22T00:06:07.910Z,2.00
2023-03-22T00:08:34.499Z,2.03
2023-03-22T00:11:01.271Z,1.95
2023-03-22T00:13:27.779Z,1.95
2023-03-22T00:15:54.942Z,1.48
2023-03-22T00:18:21.217Z,2.00
2023-03-22T00:20:48.829Z,1.88
2023-03-22T00:23:15.412Z,1.55
2023-03-22T00:25:41.764Z,1.65
2023-03-22T00:28:08.022Z,3.05
2023-03-22T00:30:34.316Z,2.22
2023-03-22T00:33:00.684Z,2.28
2023-03-22T00:35:27.015Z,1.80
2023-03-22T00:37:53.264Z,1.83
2023-03-22T00:40:19.560Z,2.15
2023-03-22T00:42:45.985Z,2.17
2023-03-22T00:45:12.555Z,2.30
2023-03-22T00:47:38.869Z,2.22
2023-03-22T00:50:06.282Z,1.75
2023-03-22T00:52:32.649Z,2.28
2023-03-22T00:54:58.946Z,1.50
2023-03-22T00:57:25.408Z,2.28
2023-03-22T00:59:53.854Z,2.05
2023-03-22T01:02:20.176Z,1.80
2023-03-22T01:04:46.852Z,2.25
2023-03-22T01:07:17.597Z,1.80
2023-03-22T01:09:44.906Z,1.95
2023-03-22T01:12:11.920Z,1.25
2023-03-22T01:14:38.834Z,2.40
2023-03-22T01:17:05.763Z,1.50
2023-03-22T01:19:32.036Z,1.95
2023-03-22T01:21:58.314Z,1.80
2023-03-22T01:24:24.639Z,1.58
2023-03-22T01:26:50.997Z,1.80
2023-03-22T01:29:17.573Z,1.73
2023-03-22T01:31:43.966Z,2.03
2023-03-22T01:34:10.209Z,1.42
2023-03-22T01:36:36.676Z,1.85
2023-03-22T01:39:04.231Z,2.17
2023-03-22T01:41:34.917Z,2.10
2023-03-22T01:44:08.400Z,1.40
2023-03-22T01:46:34.797Z,2.05
2023-03-22T01:49:02.159Z,1.63
2023-03-22T01:51:28.838Z,1.60
2023-03-22T01:53:56.819Z,2.20
2023-03-22T01:56:25.521Z,2.25
2023-03-22T01:58:52.164Z,1.65
2023-03-22T02:01:18.518Z,1.90
2023-03-22T02:04:03.180Z,2.05
2023-03-22T02:06:30.017Z,1.95
2023-03-22T02:08:58.477Z,1.90
2023-03-22T02:11:27.730Z,1.83
2023-03-22T02:14:09.104Z,1.35
2023-03-22T02:16:55.486Z,1.73
2023-03-22T02:19:30.470Z,2.30
2023-03-22T02:21:59.750Z,2.08
2023-03-22T02:24:46.259Z,2.03
2023-03-22T02:27:23.410Z,2.53
2023-03-22T02:30:09.044Z,2.67
2023-03-22T02:32:49.130Z,3.20
2023-03-22T02:35:21.455Z,2.67
2023-03-22T02:37:47.711Z,3.30
2023-03-22T02:40:16.545Z,4.80
2023-03-22T02:42:42.831Z,3.65
2023-03-22T02:45:13.446Z,4.00
2023-03-22T02:47:39.714Z,4.05
2023-03-22T02:50:11.684Z,3.40
2023-03-22T02:52:40.363Z,3.97
2023-03-22T02:55:12.134Z,4.20
2023-03-22T02:57:44.813Z,4.68
2023-03-22T03:00:12.956Z,4.53
2023-03-22T03:02:42.104Z,4.55
2023-03-22T03:05:08.816Z,4.15
2023-03-22T03:07:35.200Z,4.63
2023-03-22T03:10:02.172Z,4.57
2023-03-22T03:12:28.618Z,5.70
2023-03-22T03:14:54.940Z,4.47
2023-03-22T03:17:30.424Z,4.15
2023-03-22T03:20:02.625Z,4.47
2023-03-22T03:22:38.364Z,5.15
2023-03-22T03:25:13.631Z,5.85
2023-03-22T03:28:03.263Z,5.15
2023-03-22T03:30:52.293Z,4.30
2023-03-22T03:33:20.313Z,7.15
2023-03-22T03:35:50.704Z,4.85
2023-03-22T03:38:19.299Z,6.32
2023-03-22T03:40:47.257Z,4.72
2023-03-22T03:43:14.106Z,5.53
2023-03-22T03:45:40.618Z,6.05
2023-03-22T03:48:14.442Z,5.90
2023-03-22T03:50:41.789Z,6.38
2023-03-22T03:53:08.221Z,5.55
2023-03-22T03:55:34.575Z,5.55
2023-03-22T03:58:00.894Z,5.45
2023-03-22T04:00:27.208Z,6.18
2023-03-22T04:02:53.499Z,5.35
2023-03-22T04:05:19.852Z,6.25
2023-03-22T04:07:46.093Z,6.15
2023-03-22T04:10:12.458Z,6.43
2023-03-22T04:12:38.757Z,5.55
2023-03-22T04:15:05.731Z,5.25
2023-03-22T04:17:32.015Z,5.45
2023-03-22T04:19:58.330Z,5.90
2023-03-22T04:22:25.119Z,5.35
2023-03-22T04:24:51.472Z,5.05
2023-03-22T04:27:18.209Z,6.22
2023-03-22T04:29:51.281Z,6.00
2023-03-22T04:32:18.908Z,5.57
2023-03-22T04:34:46.369Z,5.90
2023-03-22T04:37:13.197Z,5.05
2023-03-22T04:39:39.692Z,5.03
2023-03-22T04:42:06.216Z,4.70
2023-03-22T04:44:32.473Z,4.95
2023-03-22T04:46:58.763Z,5.82
2023-03-22T04:49:26.995Z,5.40
2023-03-22T04:51:54.003Z,4.72
2023-03-22T04:54:20.297Z,2.90
2023-03-22T04:56:46.549Z,3.15
2023-03-22T04:59:12.806Z,4.90
2023-03-22T05:01:40.648Z,3.05
2023-03-22T05:04:07.061Z,2.47
2023-03-22T05:06:33.406Z,3.40
2023-03-22T05:09:00.824Z,2.95
2023-03-22T05:11:28.074Z,3.35
2023-03-22T05:13:54.870Z,2.92
2023-03-22T05:16:21.415Z,2.28
2023-03-22T05:18:47.972Z,2.90
2023-03-22T05:21:15.521Z,2.28
2023-03-22T05:23:42.816Z,2.58
2023-03-22T05:26:10.365Z,2.78
2023-03-22T05:28:37.433Z,2.63
2023-03-22T05:31:04.657Z,2.80
2023-03-22T05:33:31.813Z,2.47
2023-03-22T05:35:58.127Z,2.22
2023-03-22T05:38:24.603Z,2.40
2023-03-22T05:40:51.285Z,2.95
2023-03-22T05:43:17.875Z,1.73
2023-03-22T05:45:45.652Z,1.75
2023-03-22T05:48:12.421Z,3.35
2023-03-22T05:50:38.983Z,2.05
2023-03-22T05:53:05.528Z,2.60
2023-03-22T05:55:32.201Z,2.17
2023-03-22T05:57:59.439Z,2.20
2023-03-22T06:00:25.728Z,1.80
2023-03-22T06:03:00.545Z,2.28
2023-03-22T06:05:26.876Z,2.15
2023-03-22T06:07:53.126Z,1.95
2023-03-22T06:10:19.458Z,2.53
2023-03-22T06:12:45.846Z,1.80
2023-03-22T06:15:12.376Z,2.33
2023-03-22T06:17:38.680Z,2.13
2023-03-22T06:20:11.772Z,1.30
2023-03-22T06:22:38.432Z,2.13
2023-03-22T06:25:05.757Z,1.67
2023-03-22T06:27:32.420Z,1.77
2023-03-22T06:29:58.741Z,1.77
2023-03-22T06:32:26.583Z,2.25
2023-03-22T06:34:53.624Z,1.60
2023-03-22T06:37:20.166Z,1.48
2023-03-22T06:39:46.607Z,1.50
2023-03-22T06:42:12.902Z,1.55
2023-03-22T06:44:42.194Z,2.13
2023-03-22T06:47:08.874Z,1.75
2023-03-22T06:49:35.189Z,1.48
2023-03-22T06:52:01.742Z,1.83
2023-03-22T06:54:28.091Z,2.25
2023-03-22T06:56:54.340Z,1.67
2023-03-22T06:59:20.594Z,1.80
2023-03-22T07:01:48.254Z,1.92
2023-03-22T07:04:14.596Z,1.63
2023-03-22T07:06:40.900Z,1.50
2023-03-22T07:09:07.157Z,2.08
2023-03-22T07:11:33.455Z,3.13
2023-03-22T07:13:59.931Z,1.83
2023-03-22T07:16:26.360Z,1.70
2023-03-22T07:18:52.738Z,1.40
2023-03-22T07:21:19.054Z,1.98
2023-03-22T07:23:45.362Z,1.42
2023-03-22T07:26:13.302Z,1.50
2023-03-22T07:28:41.499Z,1.52
2023-03-22T07:31:11.420Z,1.92
2023-03-22T07:33:38.562Z,1.23
2023-03-22T07:36:05.477Z,0.77
2023-03-22T07:38:31.729Z,1.35
2023-03-22T07:40:57.952Z,1.95
2023-03-22T07:43:24.477Z,1.98
2023-03-22T07:45:51.328Z,1.55
2023-03-22T07:48:18.398Z,0.90
2023-03-22T07:50:44.740Z,0.80
2023-03-22T07:53:11.528Z,1.30
2023-03-22T07:55:38.014Z,1.02
2023-03-22T07:58:04.688Z,1.48
2023-03-22T08:00:31.265Z,1.75
2023-03-22T08:02:57.620Z,1.23
2023-03-22T08:05:24.002Z,1.83
2023-03-22T08:07:51.460Z,1.65
2023-03-22T08:10:17.919Z,1.10
2023-03-22T08:12:44.148Z,1.80
2023-03-22T08:15:10.658Z,1.55
2023-03-22T08:17:36.906Z,1.50
2023-03-22T08:20:08.742Z,1.27
2023-03-22T08:22:36.383Z,1.30
2023-03-22T08:25:03.869Z,1.00
2023-03-22T08:27:31.319Z,2.13
2023-03-22T08:29:58.200Z,1.00
2023-03-22T08:32:24.616Z,1.83
2023-03-22T08:34:51.193Z,1.27
2023-03-22T08:37:20.294Z,1.20
2023-03-22T08:39:46.927Z,1.85
2023-03-22T08:42:13.216Z,1.23
2023-03-22T08:44:39.497Z,1.77
2023-03-22T08:47:05.807Z,1.55
2023-03-22T08:49:32.243Z,1.50
2023-03-22T08:51:58.583Z,1.42
2023-03-22T08:54:27.142Z,1.80
2023-03-22T08:56:53.681Z,1.65
2023-03-22T08:59:19.984Z,1.50
2023-03-22T09:01:46.530Z,1.30
2023-03-22T09:04:12.963Z,1.38
2023-03-22T09:06:42.838Z,1.55
2023-03-22T09:09:09.080Z,1.63
2023-03-22T09:11:37.154Z,1.40
2023-03-22T09:14:03.699Z,1.65
2023-03-22T09:16:29.988Z,1.15
2023-03-22T09:18:56.336Z,1.23
2023-03-22T09:21:22.596Z,1.95
2023-03-22T09:23:50.400Z,1.10
2023-03-22T09:26:16.931Z,1.85
2023-03-22T09:28:45.394Z,1.52
2023-03-22T09:31:11.821Z,0.55
2023-03-22T09:33:38.782Z,0.82
2023-03-22T09:36:05.622Z,1.63
2023-03-22T09:38:33.822Z,1.65
2023-03-22T09:41:02.673Z,1.45
2023-03-22T09:43:31.007Z,1.45
2023-03-22T09:45:58.602Z,1.75
2023-03-22T09:48:30.735Z,1.45
2023-03-22T09:50:57.315Z,1.35
2023-03-22T09:53:24.716Z,1.00
2023-03-22T09:55:57.676Z,1.73
2023-03-22T09:58:30.585Z,1.15
2023-03-22T10:00:58.833Z,1.27
2023-03-22T10:03:43.853Z,1.50
2023-03-22T10:06:13.217Z,0.88
2023-03-22T10:08:48.573Z,1.40
2023-03-22T10:11:24.523Z,1.05
2023-03-22T10:13:50.751Z,1.42
2023-03-22T10:16:25.716Z,1.70
2023-03-22T10:18:52.513Z,1.58
2023-03-22T10:21:19.235Z,1.80
2023-03-22T10:24:05.770Z,1.27
2023-03-22T10:26:34.491Z,1.40
2023-03-22T10:29:04.098Z,2.13
2023-03-22T10:31:31.241Z,0.93
2023-03-22T10:34:06.500Z,1.30
2023-03-22T10:36:34.985Z,0.98
2023-03-22T10:39:05.842Z,1.30
2023-03-22T10:44:00.454Z,1.77
2023-03-22T10:46:28.465Z,1.40
2023-03-22T10:48:57.933Z,1.20
2023-03-22T10:51:40.275Z,1.23
2023-03-22T10:54:12.317Z,1.05
2023-03-22T10:56:38.564Z,2.05
2023-03-22T10:59:04.972Z,1.15
2023-03-22T11:01:32.884Z,1.65
2023-03-22T11:04:05.669Z,0.98
2023-03-22T11:06:36.984Z,1.65
2023-03-22T11:09:18.332Z,1.00
2023-03-22T11:11:53.485Z,1.30
2023-03-22T11:14:19.718Z,1.17
2023-03-22T11:16:52.116Z,1.20
2023-03-22T11:19:22.515Z,1.35
2023-03-22T11:21:48.863Z,0.88
2023-03-22T11:24:15.736Z,1.00
2023-03-22T11:26:42.247Z,1.23
2023-03-22T11:29:13.468Z,1.00
2023-03-22T11:31:49.077Z,1.50
2023-03-22T11:34:19.390Z,1.23
2023-03-22T11:36:54.519Z,1.63
2023-03-22T11:39:22.080Z,1.30
2023-03-22T11:41:48.654Z,1.60
2023-03-22T11:44:19.414Z,1.70
2023-03-22T11:46:57.770Z,1.73
2023-03-22T11:49:26.970Z,1.60
2023-03-22T11:51:53.886Z,1.52
2023-03-22T11:54:28.764Z,1.27
2023-03-22T11:56:55.966Z,1.00
2023-03-22T11:59:37.712Z,1.48
2023-03-22T12:02:06.561Z,1.20
2023-03-22T12:04:35.935Z,1.27
2023-03-22T12:07:04.091Z,1.55
2023-03-22T12:09:48.928Z,1.63
2023-03-22T12:12:24.451Z,1.27
2023-03-22T12:14:51.679Z,1.33
2023-03-22T12:17:44.327Z,1.33
2023-03-22T12:20:10.653Z,1.60
2023-03-22T12:22:40.253Z,1.00
2023-03-22T12:25:11.207Z,1.63
2023-03-22T12:27:40.885Z,1.58
2023-03-22T12:30:21.109Z,1.15
2023-03-22T12:32:50.636Z,1.27
2023-03-22T12:35:22.913Z,1.27
2023-03-22T12:37:51.551Z,1.35
2023-03-22T12:40:37.145Z,1.67
2023-03-22T12:43:13.408Z,0.82
2023-03-22T12:45:42.678Z,1.35
2023-03-22T12:48:20.678Z,1.23
2023-03-22T12:50:49.547Z,1.55
2023-03-22T12:53:17.324Z,1.20
2023-03-22T12:55:44.618Z,1.30
2023-03-22T12:58:13.997Z,1.20
2023-03-22T13:00:40.528Z,1.70
2023-03-22T13:03:17.370Z,1.20
2023-03-22T13:05:58.768Z,0.80
2023-03-22T13:08:25.422Z,1.33
2023-03-22T13:10:59.847Z,1.13
2023-03-22T13:13:27.681Z,1.35
2023-03-22T13:15:53.906Z,1.23
2023-03-22T13:18:33.580Z,1.13
2023-03-22T13:21:09.856Z,1.35
2023-03-22T13:23:36.198Z,1.40
2023-03-22T13:26:04.196Z,0.80
2023-03-22T13:28:37.062Z,1.40
2023-03-22T13:31:03.994Z,1.20
2023-03-22T13:33:34.723Z,0.95
2023-03-22T13:38:32.686Z,1.30
2023-03-22T13:41:01.783Z,0.90
2023-03-22T13:43:43.354Z,0.98
2023-03-22T13:46:09.720Z,1.55
2023-03-22T13:48:48.607Z,1.20
2023-03-22T13:51:15.611Z,2.17
2023-03-22T13:53:47.097Z,1.92
2023-03-22T13:56:14.273Z,1.65
2023-03-22T13:58:46.346Z,1.55
2023-03-22T14:01:14.626Z,1.80
2023-03-22T14:03:42.573Z,2.33
2023-03-22T14:06:09.478Z,2.15
2023-03-22T14:08:36.136Z,1.60
2023-03-22T14:11:08.528Z,1.63
2023-03-22T14:13:36.630Z,1.75
2023-03-22T14:16:12.823Z,1.30
2023-03-22T14:18:41.550Z,2.20
2023-03-22T14:21:18.825Z,1.92
